Time;durP1;ratioP1;P1;durP2;ratioP2;P2;SDS_P1;SDS_P2;PMS_P1;PMS_P2;Temp;Humidity;BMP_temperature;BMP_pressure;BME280_temperature;BME280_humidity;BME280_pressure;Samples;Min_cycle;Max_cycle;Signal;HPM_P1;HPM_P2
2023/08/27 00:00:13;;;;;;;57.40;3.23;;;;;;;;;;5052802;28;20488;-69
2023/08/27 00:02:40;;;;;;;57.20;2.57;;;;;;;;;;5052527;28;20465;-70
2023/08/27 00:05:08;;;;;;;56.70;2.50;;;;;;;;;;5052716;28;20466;-68
2023/08/27 00:07:36;;;;;;;56.43;2.30;;;;;;;;;;5052563;28;20456;-70
2023/08/27 00:10:05;;;;;;;57.00;2.63;;;;;;;;;;5052477;28;20502;-69
2023/08/27 00:12:32;;;;;;;56.57;2.40;;;;;;;;;;5052638;28;20444;-69
2023/08/27 00:14:59;;;;;;;57.47;2.73;;;;;;;;;;5052610;28;20460;-68
2023/08/27 00:17:27;;;;;;;56.90;2.40;;;;;;;;;;5052473;28;20444;-69
2023/08/27 00:19:54;;;;;;;56.67;2.60;;;;;;;;;;5052363;28;20483;-69
2023/08/27 00:22:21;;;;;;;56.90;2.73;;;;;;;;;;5052066;28;20453;-69
2023/08/27 00:24:48;;;;;;;56.90;2.40;;;;;;;;;;5052170;28;20456;-69
2023/08/27 00:27:17;;;;;;;56.80;2.43;;;;;;;;;;5052516;28;20848;-69
2023/08/27 00:29:46;;;;;;;56.70;2.40;;;;;;;;;;5052177;28;20527;-69
2023/08/27 00:32:13;;;;;;;56.80;2.50;;;;;;;;;;5052002;28;20451;-69
2023/08/27 00:34:40;;;;;;;56.40;2.20;;;;;;;;;;5052194;28;20468;-70
2023/08/27 00:37:07;;;;;;;57.10;2.93;;;;;;;;;;5052319;28;20466;-68
2023/08/27 00:39:36;;;;;;;56.63;2.50;;;;;;;;;;5052238;28;20855;-69
2023/08/27 00:42:04;;;;;;;57.50;2.70;;;;;;;;;;5051718;28;20456;-70
2023/08/27 00:44:33;;;;;;;56.60;2.50;;;;;;;;;;5052010;28;20480;-69
2023/08/27 00:47:00;;;;;;;56.87;2.90;;;;;;;;;;5051898;28;20449;-69
2023/08/27 00:49:27;;;;;;;56.67;2.30;;;;;;;;;;5051901;28;20820;-69
2023/08/27 00:51:54;;;;;;;56.77;2.73;;;;;;;;;;5051602;28;20440;-69
2023/08/27 00:54:22;;;;;;;56.67;2.23;;;;;;;;;;5051948;28;20468;-69
2023/08/27 00:56:49;;;;;;;56.70;2.40;;;;;;;;;;5051979;28;20441;-69
2023/08/27 00:59:17;;;;;;;57.10;2.93;;;;;;;;;;5051657;28;20491;-69
2023/08/27 01:01:45;;;;;;;56.57;2.47;;;;;;;;;;5051446;28;20440;-69
2023/08/27 01:04:12;;;;;;;56.90;2.67;;;;;;;;;;5051350;28;20500;-69
2023/08/27 01:06:40;;;;;;;56.67;2.20;;;;;;;;;;5051617;28;20448;-68
2023/08/27 01:09:12;;;;;;;57.20;2.43;;;;;;;;;;5051766;28;20554;-69
2023/08/27 01:11:44;;;;;;;57.57;2.43;;;;;;;;;;5051820;28;20456;-69
2023/08/27 01:14:12;;;;;;;57.00;3.03;;;;;;;;;;5051355;28;20478;-70
2023/08/27 01:16:39;;;;;;;56.50;2.20;;;;;;;;;;5051083;28;20620;-69
2023/08/27 01:19:12;;;;;;;56.57;2.50;;;;;;;;;;5051423;28;20484;-70
2023/08/27 01:21:41;;;;;;;56.87;2.70;;;;;;;;;;5051277;28;20448;-69
2023/08/27 01:24:08;;;;;;;56.67;2.20;;;;;;;;;;5051170;28;20465;-69
2023/08/27 01:26:39;;;;;;;56.73;2.57;;;;;;;;;;5051178;28;20539;-69
2023/08/27 01:29:10;;;;;;;56.67;2.40;;;;;;;;;;5051308;28;20443;-69
2023/08/27 01:31:40;;;;;;;56.57;2.30;;;;;;;;;;5051486;28;20452;-68
2023/08/27 01:34:08;;;;;;;58.77;3.50;;;;;;;;;;5051230;28;20470;-68
2023/08/27 01:36:36;;;;;;;56.47;2.40;;;;;;;;;;5050893;28;21011;-69
2023/08/27 01:39:05;;;;;;;56.67;2.23;;;;;;;;;;5051043;28;20867;-69
2023/08/27 01:41:32;;;;;;;56.87;2.83;;;;;;;;;;5050956;28;20831;-69
2023/08/27 01:43:59;;;;;;;56.47;2.27;;;;;;;;;;5050753;28;20551;-69
2023/08/27 01:46:26;;;;;;;56.60;2.33;;;;;;;;;;5050914;28;20436;-69
2023/08/27 01:48:53;;;;;;;56.77;2.63;;;;;;;;;;5049642;28;20448;-69
2023/08/27 01:51:20;;;;;;;57.60;3.00;;;;;;;;;;5050990;28;20873;-70
2023/08/27 01:53:47;;;;;;;56.67;2.30;;;;;;;;;;5050728;28;20531;-70
2023/08/27 01:56:16;;;;;;;57.47;3.60;;;;;;;;;;5050748;28;20520;-68
2023/08/27 01:58:43;;;;;;;56.47;2.33;;;;;;;;;;5050797;28;20454;-68
2023/08/27 02:01:10;;;;;;;59.07;3.50;;;;;;;;;;5054502;28;20488;-70
2023/08/27 02:03:37;;;;;;;57.47;3.80;;;;;;;;;;5057135;28;20463;-70
2023/08/27 02:06:05;;;;;;;57.67;2.77;;;;;;;;;;5057568;28;20439;-70
2023/08/27 02:08:32;;;;;;;56.63;2.27;;;;;;;;;;5057618;28;20483;-70
2023/08/27 02:11:00;;;;;;;56.40;2.10;;;;;;;;;;5057359;28;20446;-68
2023/08/27 02:13:28;;;;;;;65.20;4.87;;;;;;;;;;5057372;28;20455;-69
2023/08/27 02:15:55;;;;;;;56.43;2.40;;;;;;;;;;5057229;28;20451;-68
2023/08/27 02:18:22;;;;;;;57.47;2.77;;;;;;;;;;5057397;28;20962;-69
2023/08/27 02:20:49;;;;;;;56.53;2.23;;;;;;;;;;5057597;28;20495;-69
2023/08/27 02:23:16;;;;;;;56.47;2.40;;;;;;;;;;5057417;28;20444;-70
2023/08/27 02:25:44;;;;;;;56.90;2.87;;;;;;;;;;5057484;28;20467;-69
2023/08/27 02:28:11;;;;;;;56.83;2.97;;;;;;;;;;5057725;28;20771;-70
2023/08/27 02:30:39;;;;;;;56.50;2.10;;;;;;;;;;5057719;28;20451;-69
2023/08/27 02:33:06;;;;;;;57.30;3.47;;;;;;;;;;5057242;28;20530;-69
2023/08/27 02:35:33;;;;;;;57.07;2.67;;;;;;;;;;5057598;28;20463;-70
2023/08/27 02:38:00;;;;;;;56.70;2.40;;;;;;;;;;5057303;28;20801;-69
2023/08/27 02:40:27;;;;;;;56.40;2.30;;;;;;;;;;5057136;28;20483;-69
2023/08/27 02:42:55;;;;;;;57.50;2.50;;;;;;;;;;5056774;28;20444;-69
2023/08/27 02:45:23;;;;;;;56.70;2.60;;;;;;;;;;5057158;28;20488;-69
2023/08/27 02:47:51;;;;;;;57.00;2.50;;;;;;;;;;5057039;28;20959;-69
2023/08/27 02:50:18;;;;;;;56.37;2.67;;;;;;;;;;5057030;28;20444;-69
2023/08/27 02:52:46;;;;;;;58.27;2.97;;;;;;;;;;5056950;28;20444;-70
2023/08/27 02:55:13;;;;;;;56.53;2.50;;;;;;;;;;5057111;28;20556;-70
2023/08/27 02:57:40;;;;;;;56.80;2.70;;;;;;;;;;5056870;28;20965;-70
2023/08/27 03:00:08;;;;;;;56.67;2.60;;;;;;;;;;5057149;28;20484;-69
2023/08/27 03:02:35;;;;;;;57.10;3.73;;;;;;;;;;5056707;28;20455;-69
2023/08/27 03:05:05;;;;;;;56.50;2.60;;;;;;;;;;5056933;28;20468;-69
2023/08/27 03:07:32;;;;;;;57.20;3.30;;;;;;;;;;5056782;28;20451;-69
2023/08/27 03:09:59;;;;;;;57.30;3.00;;;;;;;;;;5056589;28;20834;-68
2023/08/27 03:12:26;;;;;;;58.37;3.43;;;;;;;;;;5053811;28;20440;-69
2023/08/27 03:14:53;;;;;;;56.90;2.93;;;;;;;;;;5053791;28;20468;-68
2023/08/27 03:17:21;;;;;;;56.80;2.50;;;;;;;;;;5053401;28;20450;-68
2023/08/27 03:19:48;;;;;;;56.50;2.20;;;;;;;;;;5053488;28;20671;-70
2023/08/27 03:22:16;;;;;;;57.30;2.83;;;;;;;;;;5053435;28;20454;-69
2023/08/27 03:24:43;;;;;;;56.70;2.80;;;;;;;;;;5053509;28;20467;-69
2023/08/27 03:27:10;;;;;;;56.63;2.60;;;;;;;;;;5053442;28;20445;-70
2023/08/27 03:29:38;;;;;;;56.97;2.93;;;;;;;;;;5053535;28;20449;-71
2023/08/27 03:32:05;;;;;;;56.50;2.30;;;;;;;;;;5053263;28;20444;-69
2023/08/27 03:34:32;;;;;;;58.67;3.97;;;;;;;;;;5053281;28;20551;-69
2023/08/27 03:37:00;;;;;;;57.00;2.47;;;;;;;;;;5053105;28;20456;-70
2023/08/27 03:39:28;;;;;;;56.70;2.40;;;;;;;;;;5053334;28;20457;-70
2023/08/27 03:41:55;;;;;;;57.40;3.10;;;;;;;;;;5052944;28;20822;-69
2023/08/27 03:44:22;;;;;;;57.93;2.47;;;;;;;;;;5053293;28;20718;-69
2023/08/27 03:46:49;;;;;;;56.67;2.70;;;;;;;;;;5053209;28;20455;-69
2023/08/27 03:49:16;;;;;;;56.60;2.80;;;;;;;;;;5053085;28;21012;-69
2023/08/27 03:51:43;;;;;;;56.83;2.40;;;;;;;;;;5052599;28;20490;-69
2023/08/27 03:54:10;;;;;;;56.50;2.50;;;;;;;;;;5052819;28;20471;-69
2023/08/27 03:56:39;;;;;;;57.30;3.43;;;;;;;;;;5053050;28;20802;-69
2023/08/27 03:59:06;;;;;;;56.80;2.77;;;;;;;;;;5052979;28;20456;-68
2023/08/27 04:01:34;;;;;;;56.50;2.67;;;;;;;;;;5052755;28;20487;-69
2023/08/27 04:04:01;;;;;;;56.80;2.83;;;;;;;;;;5052489;28;20555;-68
2023/08/27 04:06:29;;;;;;;56.90;2.63;;;;;;;;;;5052984;28;20447;-68
2023/08/27 04:08:56;;;;;;;58.50;2.97;;;;;;;;;;5053196;28;20466;-68
2023/08/27 04:11:23;;;;;;;56.63;2.57;;;;;;;;;;5053092;28;20809;-68
2023/08/27 04:13:51;;;;;;;56.50;2.50;;;;;;;;;;5052357;28;20449;-68
2023/08/27 04:16:18;;;;;;;56.70;2.40;;;;;;;;;;5052657;28;20523;-68
2023/08/27 04:18:45;;;;;;;56.37;2.10;;;;;;;;;;5052523;28;20441;-69
2023/08/27 04:21:12;;;;;;;56.23;2.10;;;;;;;;;;5052441;28;20488;-68
2023/08/27 04:23:39;;;;;;;56.40;2.70;;;;;;;;;;5051909;28;20448;-69
2023/08/27 04:26:07;;;;;;;57.17;3.33;;;;;;;;;;5052435;28;20440;-68
2023/08/27 04:28:34;;;;;;;56.67;2.43;;;;;;;;;;5052398;28;20452;-68
2023/08/27 04:31:03;;;;;;;56.90;2.50;;;;;;;;;;5052322;28;20527;-68
2023/08/27 04:33:30;;;;;;;56.70;2.30;;;;;;;;;;5052161;28;20536;-69
2023/08/27 04:35:57;;;;;;;56.87;2.53;;;;;;;;;;5052287;28;20455;-68
2023/08/27 04:38:24;;;;;;;57.20;2.83;;;;;;;;;;5052184;28;20900;-68
2023/08/27 04:40:52;;;;;;;56.50;2.30;;;;;;;;;;5052158;28;20488;-68
2023/08/27 04:43:19;;;;;;;56.33;2.20;;;;;;;;;;5051785;28;20441;-68
2023/08/27 04:45:46;;;;;;;57.07;2.90;;;;;;;;;;5051875;28;20496;-69
2023/08/27 04:48:15;;;;;;;56.47;2.20;;;;;;;;;;5052171;28;20444;-68
2023/08/27 04:50:45;;;;;;;56.23;2.10;;;;;;;;;;5051854;28;20490;-69
2023/08/27 04:53:12;;;;;;;57.40;3.63;;;;;;;;;;5051710;28;20501;-68
2023/08/27 04:55:39;;;;;;;57.87;3.63;;;;;;;;;;5051797;28;20464;-68
2023/08/27 04:58:08;;;;;;;56.57;2.47;;;;;;;;;;5051795;28;21087;-69
2023/08/27 05:00:35;;;;;;;56.40;2.20;;;;;;;;;;5051752;28;20938;-68
2023/08/27 05:03:03;;;;;;;56.87;2.43;;;;;;;;;;5051565;28;20442;-68
2023/08/27 05:05:31;;;;;;;57.30;3.37;;;;;;;;;;5051650;28;20464;-68
2023/08/27 05:07:58;;;;;;;56.60;2.20;;;;;;;;;;5051762;28;20451;-68
2023/08/27 05:10:25;;;;;;;56.60;2.10;;;;;;;;;;5051520;28;20444;-68
2023/08/27 05:12:52;;;;;;;56.77;2.50;;;;;;;;;;5051285;28;20448;-68
2023/08/27 05:15:21;;;;;;;57.20;3.20;;;;;;;;;;5051436;28;20475;-68
2023/08/27 05:17:48;;;;;;;56.40;2.20;;;;;;;;;;5051558;28;20912;-68
2023/08/27 05:20:15;;;;;;;56.47;2.37;;;;;;;;;;5051236;28;21003;-69
2023/08/27 05:22:43;;;;;;;56.37;2.40;;;;;;;;;;5051043;28;20820;-69
2023/08/27 05:25:10;;;;;;;56.87;3.27;;;;;;;;;;5051170;28;20495;-68
2023/08/27 05:27:43;;;;;;;57.30;2.97;;;;;;;;;;5051567;28;20440;-68
2023/08/27 05:30:11;;;;;;;57.73;2.67;;;;;;;;;;5051575;28;20471;-68
2023/08/27 05:32:38;;;;;;;56.43;2.30;;;;;;;;;;5051137;28;20446;-68
2023/08/27 05:35:05;;;;;;;57.17;2.80;;;;;;;;;;5050807;28;20768;-68
2023/08/27 05:37:33;;;;;;;56.70;2.50;;;;;;;;;;5051059;28;20456;-68
2023/08/27 05:40:01;;;;;;;56.90;2.50;;;;;;;;;;5051610;28;20440;-69
2023/08/27 05:42:28;;;;;;;56.67;2.63;;;;;;;;;;5050851;28;20490;-68
2023/08/27 05:44:55;;;;;;;56.63;2.50;;;;;;;;;;5050857;28;20992;-69
2023/08/27 05:47:23;;;;;;;57.00;2.73;;;;;;;;;;5051024;28;20455;-68
2023/08/27 05:49:50;;;;;;;56.67;2.53;;;;;;;;;;5050954;28;20446;-70
2023/08/27 05:52:17;;;;;;;56.60;2.57;;;;;;;;;;5050473;28;20451;-68
2023/08/27 05:54:44;;;;;;;57.10;2.47;;;;;;;;;;5050700;28;20972;-68
2023/08/27 05:57:13;;;;;;;57.50;3.23;;;;;;;;;;5050994;28;20451;-68
2023/08/27 05:59:40;;;;;;;56.60;2.50;;;;;;;;;;5050764;28;20445;-68
2023/08/27 06:02:09;;;;;;;56.23;2.20;;;;;;;;;;5050476;28;20492;-68
2023/08/27 06:04:36;;;;;;;56.80;2.40;;;;;;;;;;5050810;28;20701;-68
2023/08/27 06:07:03;;;;;;;56.43;2.20;;;;;;;;;;5050658;28;20474;-68
2023/08/27 06:09:30;;;;;;;56.60;2.40;;;;;;;;;;5050729;28;20933;-69
2023/08/27 06:11:58;;;;;;;57.30;3.13;;;;;;;;;;5050420;28;20440;-68
2023/08/27 06:14:26;;;;;;;57.20;3.00;;;;;;;;;;5050629;28;20460;-68
2023/08/27 06:16:54;;;;;;;56.37;2.40;;;;;;;;;;5050717;28;20452;-67
2023/08/27 06:19:21;;;;;;;56.87;2.43;;;;;;;;;;5050838;28;20448;-68
2023/08/27 06:21:48;;;;;;;56.40;2.70;;;;;;;;;;5050425;28;21041;-68
2023/08/27 06:24:15;;;;;;;56.57;2.37;;;;;;;;;;5050523;28;20472;-68
2023/08/27 06:26:42;;;;;;;57.70;3.20;;;;;;;;;;5050867;28;20444;-68
2023/08/27 06:29:09;;;;;;;56.33;2.37;;;;;;;;;;5050503;28;20454;-68
2023/08/27 06:31:38;;;;;;;56.33;2.20;;;;;;;;;;5050111;28;20541;-69
2023/08/27 06:34:05;;;;;;;56.60;2.90;;;;;;;;;;5050240;28;20468;-69
2023/08/27 06:36:32;;;;;;;56.80;2.93;;;;;;;;;;5049849;28;20824;-68
2023/08/27 06:39:00;;;;;;;56.70;2.60;;;;;;;;;;5050112;28;20452;-69
2023/08/27 06:41:27;;;;;;;56.60;3.10;;;;;;;;;;5049871;28;20476;-68
2023/08/27 06:43:54;;;;;;;56.67;2.70;;;;;;;;;;5049184;28;20483;-69
2023/08/27 06:46:21;;;;;;;56.20;2.17;;;;;;;;;;5051791;28;20783;-69
2023/08/27 06:48:49;;;;;;;57.00;3.10;;;;;;;;;;5054057;28;20450;-69
2023/08/27 06:51:16;;;;;;;56.50;2.50;;;;;;;;;;5055117;28;20447;-68
2023/08/27 06:53:43;;;;;;;57.87;2.30;;;;;;;;;;5056717;28;20452;-69
2023/08/27 06:56:11;;;;;;;56.33;2.70;;;;;;;;;;5058931;28;20452;-68
2023/08/27 06:58:38;;;;;;;56.57;2.50;;;;;;;;;;5053969;28;20454;-69
2023/08/27 07:01:05;;;;;;;56.27;2.50;;;;;;;;;;5053823;28;20519;-68
2023/08/27 07:03:32;;;;;;;56.70;3.10;;;;;;;;;;5053480;28;20452;-69
2023/08/27 07:06:01;;;;;;;57.20;3.23;;;;;;;;;;5053642;28;20480;-68
2023/08/27 07:08:28;;;;;;;57.77;2.63;;;;;;;;;;5053951;28;20440;-68
2023/08/27 07:10:56;;;;;;;57.00;2.77;;;;;;;;;;5053745;28;20448;-67
2023/08/27 07:13:23;;;;;;;57.07;3.23;;;;;;;;;;5053456;28;20839;-68
2023/08/27 07:15:50;;;;;;;57.10;2.80;;;;;;;;;;5053445;28;20464;-68
2023/08/27 07:18:17;;;;;;;56.90;2.60;;;;;;;;;;5053577;28;20455;-69
2023/08/27 07:20:44;;;;;;;56.70;2.60;;;;;;;;;;5053627;28;20448;-69
2023/08/27 07:23:13;;;;;;;56.60;2.43;;;;;;;;;;5053172;28;20440;-68
2023/08/27 07:25:40;;;;;;;56.40;2.30;;;;;;;;;;5053349;28;20469;-68
2023/08/27 07:28:08;;;;;;;56.80;3.03;;;;;;;;;;5053350;28;20936;-68
2023/08/27 07:30:35;;;;;;;56.60;2.77;;;;;;;;;;5053252;28;20455;-69
2023/08/27 07:33:02;;;;;;;56.80;2.93;;;;;;;;;;5053230;28;20446;-69
2023/08/27 07:35:31;;;;;;;56.27;2.30;;;;;;;;;;5053292;28;20468;-69
2023/08/27 07:37:58;;;;;;;56.40;2.50;;;;;;;;;;5053141;28;21049;-68
2023/08/27 07:40:26;;;;;;;56.30;2.33;;;;;;;;;;5053228;28;20535;-68
2023/08/27 07:42:54;;;;;;;56.90;3.07;;;;;;;;;;5052716;28;20870;-69
2023/08/27 07:45:21;;;;;;;57.17;2.83;;;;;;;;;;5052877;28;20496;-68
2023/08/27 07:47:48;;;;;;;57.33;2.80;;;;;;;;;;5053190;28;20447;-69
2023/08/27 07:50:15;;;;;;;56.27;2.50;;;;;;;;;;5053084;28;20448;-69
2023/08/27 07:52:43;;;;;;;56.30;2.30;;;;;;;;;;5052756;28;20444;-69
2023/08/27 07:55:10;;;;;;;56.10;2.10;;;;;;;;;;5052712;28;20472;-68
2023/08/27 07:57:38;;;;;;;56.03;1.90;;;;;;;;;;5052584;28;20858;-70
2023/08/27 08:00:07;;;;;;;56.20;2.30;;;;;;;;;;5052571;28;20437;-69
2023/08/27 08:02:34;;;;;;;56.70;2.60;;;;;;;;;;5052436;28;20993;-69
2023/08/27 08:05:02;;;;;;;56.27;2.87;;;;;;;;;;5052607;28;20465;-69
2023/08/27 08:07:29;;;;;;;56.17;2.20;;;;;;;;;;5052579;28;20444;-69
2023/08/27 08:09:56;;;;;;;56.17;2.20;;;;;;;;;;5052559;28;20451;-68
2023/08/27 08:12:23;;;;;;;56.13;1.93;;;;;;;;;;5052500;28;20486;-70
2023/08/27 08:14:52;;;;;;;56.17;2.23;;;;;;;;;;5052398;28;20476;-68
2023/08/27 08:17:19;;;;;;;56.07;2.47;;;;;;;;;;5052566;28;20475;-68
2023/08/27 08:19:46;;;;;;;56.03;2.30;;;;;;;;;;5052445;28;20536;-69
2023/08/27 08:22:13;;;;;;;56.07;2.30;;;;;;;;;;5052066;28;20487;-68
2023/08/27 08:24:40;;;;;;;57.07;2.27;;;;;;;;;;5052229;28;20972;-68
2023/08/27 08:27:07;;;;;;;56.60;2.63;;;;;;;;;;5052223;28;20978;-68
2023/08/27 08:29:35;;;;;;;56.33;2.30;;;;;;;;;;5052278;28;20929;-68
2023/08/27 08:32:03;;;;;;;56.07;1.87;;;;;;;;;;5051967;28;20440;-70
2023/08/27 08:34:31;;;;;;;56.50;2.33;;;;;;;;;;5052171;28;20555;-69
2023/08/27 08:37:00;;;;;;;56.27;2.00;;;;;;;;;;5051919;28;20452;-69
2023/08/27 08:39:27;;;;;;;56.47;2.30;;;;;;;;;;5052337;28;20871;-69
2023/08/27 08:41:57;;;;;;;56.00;1.90;;;;;;;;;;5051639;28;20552;-69
2023/08/27 08:44:27;;;;;;;56.30;2.10;;;;;;;;;;5052043;28;20965;-69
2023/08/27 08:46:55;;;;;;;56.27;2.17;;;;;;;;;;5051956;28;20448;-70
2023/08/27 08:49:23;;;;;;;56.10;2.27;;;;;;;;;;5051842;28;20806;-69
2023/08/27 08:51:55;;;;;;;56.60;2.20;;;;;;;;;;5057853;28;20451;-69
2023/08/27 08:54:24;;;;;;;56.80;2.70;;;;;;;;;;5069304;28;20460;-70
2023/08/27 08:56:54;;;;;;;56.27;2.07;;;;;;;;;;5055752;28;20823;-69
2023/08/27 08:59:22;;;;;;;55.97;1.90;;;;;;;;;;5060054;28;20839;-70
2023/08/27 09:01:49;;;;;;;56.23;2.30;;;;;;;;;;5059812;28;20476;-70
2023/08/27 09:04:17;;;;;;;56.17;2.00;;;;;;;;;;5063295;28;20471;-69
2023/08/27 09:06:46;;;;;;;56.40;2.00;;;;;;;;;;5060247;28;20447;-69
2023/08/27 09:09:14;;;;;;;56.17;2.20;;;;;;;;;;5069672;28;20451;-69
2023/08/27 09:11:42;;;;;;;56.50;2.67;;;;;;;;;;5070401;28;20450;-70
2023/08/27 09:14:10;;;;;;;56.30;1.90;;;;;;;;;;5055607;28;20507;-69
2023/08/27 09:16:37;;;;;;;56.20;2.00;;;;;;;;;;5051125;28;20471;-69
2023/08/27 09:19:05;;;;;;;56.03;2.13;;;;;;;;;;5051589;28;20450;-70
2023/08/27 09:21:32;;;;;;;56.27;2.37;;;;;;;;;;5051317;28;20447;-70
2023/08/27 09:24:00;;;;;;;56.07;2.03;;;;;;;;;;5051183;28;20994;-69
2023/08/27 09:26:27;;;;;;;56.30;2.00;;;;;;;;;;5051662;28;20824;-70
2023/08/27 09:28:55;;;;;;;56.07;2.30;;;;;;;;;;5051139;28;20456;-70
2023/08/27 09:31:38;;;;;;;56.17;2.10;;;;;;;;;;5051267;28;20468;-70
2023/08/27 09:34:06;;;;;;;56.07;1.90;;;;;;;;;;5051281;28;20496;-70
2023/08/27 09:36:33;;;;;;;56.00;1.83;;;;;;;;;;5050932;28;20549;-70
2023/08/27 09:39:05;;;;;;;56.37;2.33;;;;;;;;;;5051142;28;20853;-70
2023/08/27 09:41:37;;;;;;;56.13;1.90;;;;;;;;;;5050864;28;20444;-70
2023/08/27 09:44:04;;;;;;;56.07;1.80;;;;;;;;;;5051029;28;20472;-71
2023/08/27 09:46:31;;;;;;;56.13;2.00;;;;;;;;;;5050958;28;20451;-70
2023/08/27 09:48:59;;;;;;;55.97;1.93;;;;;;;;;;5050858;28;20823;-70
2023/08/27 09:51:27;;;;;;;56.33;2.50;;;;;;;;;;5050804;28;20445;-70
2023/08/27 09:53:54;;;;;;;56.07;1.87;;;;;;;;;;5050648;28;20813;-69
2023/08/27 09:56:25;;;;;;;56.27;1.87;;;;;;;;;;5050667;28;20448;-69
2023/08/27 09:58:54;;;;;;;56.37;1.97;;;;;;;;;;5050758;28;20963;-69
2023/08/27 10:01:21;;;;;;;56.60;2.20;;;;;;;;;;5050997;28;20444;-69
2023/08/27 10:03:48;;;;;;;56.07;1.77;;;;;;;;;;5050561;28;20498;-69
2023/08/27 10:06:15;;;;;;;61.47;2.73;;;;;;;;;;5050757;28;20471;-69
2023/08/27 10:08:50;;;;;;;56.07;1.80;;;;;;;;;;5050564;28;20440;-70
2023/08/27 10:11:17;;;;;;;56.17;2.00;;;;;;;;;;5050819;28;20463;-69
2023/08/27 10:13:46;;;;;;;55.63;1.60;;;;;;;;;;5050554;28;20440;-70
2023/08/27 10:16:14;;;;;;;56.10;1.90;;;;;;;;;;5050851;28;20444;-70
2023/08/27 10:18:41;;;;;;;56.30;1.80;;;;;;;;;;5050763;28;20445;-70
2023/08/27 10:21:09;;;;;;;55.87;1.77;;;;;;;;;;5050645;28;21009;-69
2023/08/27 10:23:37;;;;;;;56.10;1.80;;;;;;;;;;5054394;28;20491;-69
2023/08/27 10:26:04;;;;;;;55.97;1.80;;;;;;;;;;5054649;28;20440;-69
2023/08/27 10:28:33;;;;;;;56.20;1.90;;;;;;;;;;5054649;28;20448;-70
2023/08/27 10:31:03;;;;;;;56.17;1.87;;;;;;;;;;5054553;28;20456;-70
2023/08/27 10:33:30;;;;;;;56.10;2.17;;;;;;;;;;5054237;28;20472;-70
2023/08/27 10:36:00;;;;;;;55.83;1.80;;;;;;;;;;5054541;28;20448;-70
2023/08/27 10:38:28;;;;;;;56.50;2.53;;;;;;;;;;5054329;28;20660;-70
2023/08/27 10:40:55;;;;;;;57.57;3.03;;;;;;;;;;5054432;28;20475;-70
2023/08/27 10:43:22;;;;;;;56.90;2.80;;;;;;;;;;5054011;28;20654;-70
2023/08/27 10:45:50;;;;;;;56.57;2.00;;;;;;;;;;5054074;28;20821;-70
2023/08/27 10:48:25;;;;;;;56.17;1.80;;;;;;;;;;5054051;28;20448;-70
2023/08/27 10:50:55;;;;;;;56.50;2.00;;;;;;;;;;5054136;28;20448;-70
2023/08/27 10:53:22;;;;;;;56.60;2.33;;;;;;;;;;5054009;28;20542;-70
2023/08/27 10:55:51;;;;;;;56.50;2.20;;;;;;;;;;5053885;28;20464;-71
2023/08/27 10:58:18;;;;;;;56.07;1.80;;;;;;;;;;5054029;28;20826;-70
2023/08/27 11:00:58;;;;;;;56.40;2.03;;;;;;;;;;5053800;28;20480;-70
2023/08/27 11:03:27;;;;;;;55.67;1.80;;;;;;;;;;5053740;28;20488;-70
2023/08/27 11:06:09;;;;;;;56.00;1.70;;;;;;;;;;5053894;28;20472;-72
2023/08/27 11:08:36;;;;;;;56.20;2.10;;;;;;;;;;5053687;28;20444;-71
2023/08/27 11:11:11;;;;;;;55.97;1.77;;;;;;;;;;5053668;28;20440;-70
2023/08/27 11:13:41;;;;;;;56.17;1.83;;;;;;;;;;5053641;28;20432;-71
2023/08/27 11:16:13;;;;;;;55.63;1.67;;;;;;;;;;5053932;28;20782;-69
2023/08/27 11:18:48;;;;;;;57.17;2.37;;;;;;;;;;5053718;28;20442;-69
2023/08/27 11:21:22;;;;;;;56.60;2.30;;;;;;;;;;5053617;28;20450;-69
2023/08/27 11:24:04;;;;;;;56.83;1.87;;;;;;;;;;5053097;28;20514;-69
2023/08/27 11:26:31;;;;;;;56.60;2.33;;;;;;;;;;5053216;28;20444;-69
2023/08/27 11:28:58;;;;;;;56.10;2.00;;;;;;;;;;5053432;28;20436;-71
2023/08/27 11:31:26;;;;;;;56.30;2.03;;;;;;;;;;5053284;28;20451;-70
2023/08/27 11:33:55;;;;;;;56.00;1.90;;;;;;;;;;5051980;28;20460;-69
2023/08/27 11:36:22;;;;;;;55.77;1.70;;;;;;;;;;5053058;28;20448;-69
2023/08/27 11:38:49;;;;;;;57.13;2.13;;;;;;;;;;5053676;28;20448;-70
2023/08/27 11:41:16;;;;;;;56.47;2.10;;;;;;;;;;5053459;28;20819;-70
2023/08/27 11:43:44;;;;;;;56.40;2.70;;;;;;;;;;5052692;28;20484;-69
2023/08/27 11:46:21;;;;;;;55.80;1.90;;;;;;;;;;5052939;28;20450;-70
2023/08/27 11:48:48;;;;;;;56.07;2.00;;;;;;;;;;5052973;28;20819;-69
2023/08/27 11:51:17;;;;;;;56.30;1.90;;;;;;;;;;5052942;28;20960;-70
2023/08/27 11:53:44;;;;;;;56.37;2.17;;;;;;;;;;5052733;28;20446;-70
2023/08/27 11:56:11;;;;;;;56.30;2.10;;;;;;;;;;5052837;28;20958;-70
2023/08/27 11:58:39;;;;;;;56.07;2.00;;;;;;;;;;5052817;28;20979;-69
2023/08/27 12:01:07;;;;;;;55.90;2.10;;;;;;;;;;5052773;28;20549;-70
2023/08/27 12:03:34;;;;;;;55.93;1.70;;;;;;;;;;5052606;28;20592;-71
2023/08/27 12:06:01;;;;;;;56.20;2.10;;;;;;;;;;5052716;28;20458;-71
2023/08/27 12:08:35;;;;;;;56.27;1.90;;;;;;;;;;5052884;28;20450;-71
2023/08/27 12:11:02;;;;;;;55.97;1.90;;;;;;;;;;5052750;28;20556;-70
2023/08/27 12:13:29;;;;;;;55.97;2.20;;;;;;;;;;5052402;28;20440;-70
2023/08/27 12:15:58;;;;;;;56.60;2.50;;;;;;;;;;5052321;28;20468;-71
2023/08/27 12:18:32;;;;;;;56.30;2.20;;;;;;;;;;5052690;28;20448;-69
2023/08/27 12:21:04;;;;;;;56.10;2.20;;;;;;;;;;5052795;28;21098;-69
2023/08/27 12:23:33;;;;;;;58.50;2.50;;;;;;;;;;5052467;28;20570;-70
2023/08/27 12:26:02;;;;;;;56.40;2.20;;;;;;;;;;5052331;28;20543;-70
2023/08/27 12:28:29;;;;;;;56.00;1.70;;;;;;;;;;5052479;28;20448;-70
2023/08/27 12:30:58;;;;;;;56.20;2.17;;;;;;;;;;5052423;28;20448;-70
2023/08/27 12:33:37;;;;;;;55.67;1.80;;;;;;;;;;5052113;28;20444;-70
2023/08/27 12:36:05;;;;;;;56.40;2.00;;;;;;;;;;5052357;28;20448;-70
2023/08/27 12:38:33;;;;;;;55.83;1.60;;;;;;;;;;5051971;28;20810;-69
2023/08/27 12:41:01;;;;;;;55.90;1.80;;;;;;;;;;5051947;28;20455;-70
2023/08/27 12:43:28;;;;;;;56.07;1.80;;;;;;;;;;5051808;28;20491;-68
2023/08/27 12:45:55;;;;;;;56.03;1.80;;;;;;;;;;5051559;28;20482;-69
2023/08/27 12:48:22;;;;;;;56.80;2.10;;;;;;;;;;5052032;28;20451;-70
2023/08/27 12:50:49;;;;;;;56.03;2.13;;;;;;;;;;5051775;28;20459;-70
2023/08/27 12:53:17;;;;;;;55.77;2.30;;;;;;;;;;5051498;28;20448;-70
2023/08/27 12:55:46;;;;;;;56.17;2.13;;;;;;;;;;5051763;28;20464;-70
2023/08/27 12:58:13;;;;;;;56.30;2.30;;;;;;;;;;5052472;28;20452;-70
2023/08/27 13:00:40;;;;;;;56.40;2.00;;;;;;;;;;5052014;28;20455;-69
2023/08/27 13:03:07;;;;;;;56.60;2.77;;;;;;;;;;5051500;28;20484;-70
2023/08/27 13:05:35;;;;;;;56.27;1.90;;;;;;;;;;5051507;28;20532;-70
2023/08/27 13:08:02;;;;;;;56.37;1.87;;;;;;;;;;5051605;28;20443;-70
2023/08/27 13:10:29;;;;;;;56.60;2.13;;;;;;;;;;5051443;28;20539;-70
2023/08/27 13:12:57;;;;;;;56.50;2.40;;;;;;;;;;5051599;28;20523;-70
2023/08/27 13:15:25;;;;;;;55.90;1.60;;;;;;;;;;5051389;28;20908;-69
2023/08/27 13:17:52;;;;;;;56.10;1.80;;;;;;;;;;5051456;28;20456;-70
2023/08/27 13:20:20;;;;;;;56.00;1.90;;;;;;;;;;5051306;28;20449;-69
2023/08/27 13:22:47;;;;;;;56.27;1.90;;;;;;;;;;5051098;28;20448;-70
2023/08/27 13:25:14;;;;;;;56.00;1.80;;;;;;;;;;5051128;28;20472;-69
2023/08/27 13:27:41;;;;;;;56.50;2.00;;;;;;;;;;5051247;28;20821;-70
2023/08/27 13:30:10;;;;;;;55.97;1.90;;;;;;;;;;5051338;28;20458;-70
2023/08/27 13:32:37;;;;;;;56.03;2.10;;;;;;;;;;5050866;28;20452;-70
2023/08/27 13:35:05;;;;;;;55.87;2.00;;;;;;;;;;5050931;28;20472;-70
2023/08/27 13:37:33;;;;;;;56.20;1.90;;;;;;;;;;5050904;28;20496;-70
2023/08/27 13:40:00;;;;;;;56.60;2.30;;;;;;;;;;5051318;28;20444;-70
2023/08/27 13:42:27;;;;;;;56.20;1.70;;;;;;;;;;5050736;28;20455;-70
2023/08/27 13:44:54;;;;;;;56.30;2.20;;;;;;;;;;5050829;28;20492;-70
2023/08/27 13:47:23;;;;;;;56.00;2.60;;;;;;;;;;5050658;28;20455;-70
2023/08/27 13:49:50;;;;;;;55.83;2.03;;;;;;;;;;5050982;28;20448;-71
2023/08/27 13:52:18;;;;;;;56.07;1.80;;;;;;;;;;5050759;28;20536;-70
2023/08/27 13:54:46;;;;;;;56.07;1.80;;;;;;;;;;5050980;28;20468;-70
2023/08/27 13:57:13;;;;;;;55.83;2.10;;;;;;;;;;5050187;28;20445;-70
2023/08/27 13:59:41;;;;;;;56.30;2.00;;;;;;;;;;5050765;28;20444;-70
2023/08/27 14:02:09;;;;;;;56.20;2.40;;;;;;;;;;5050438;28;20440;-70
2023/08/27 14:04:37;;;;;;;56.40;1.93;;;;;;;;;;5050782;28;20527;-70
2023/08/27 14:07:05;;;;;;;56.00;1.93;;;;;;;;;;5050732;28;20546;-70
2023/08/27 14:09:33;;;;;;;56.20;2.00;;;;;;;;;;5050750;28;20455;-69
2023/08/27 14:12:00;;;;;;;56.13;2.13;;;;;;;;;;5050348;28;20448;-70
2023/08/27 14:14:27;;;;;;;56.17;1.90;;;;;;;;;;5050518;28;21048;-69
2023/08/27 14:16:54;;;;;;;56.03;2.07;;;;;;;;;;5050741;28;21000;-69
2023/08/27 14:19:22;;;;;;;56.30;2.10;;;;;;;;;;5050751;28;20539;-70
2023/08/27 14:21:51;;;;;;;56.20;2.00;;;;;;;;;;5050375;28;20448;-69
2023/08/27 14:24:18;;;;;;;56.23;2.03;;;;;;;;;;5050264;28;21029;-69
2023/08/27 14:26:45;;;;;;;56.40;2.37;;;;;;;;;;5050563;28;20455;-69
2023/08/27 14:29:12;;;;;;;56.17;2.03;;;;;;;;;;5050416;28;20440;-69
2023/08/27 14:31:39;;;;;;;56.17;1.80;;;;;;;;;;5050240;28;20937;-70
2023/08/27 14:34:07;;;;;;;56.13;2.03;;;;;;;;;;5050747;28;20463;-69